createdAt,value
2023-03-29T00:01:35.083Z,7.18
2023-03-29T00:04:06.459Z,6.80
2023-03-29T00:06:34.025Z,5.45
2023-03-29T00:09:01.803Z,5.88
2023-03-29T00:11:28.607Z,6.28
2023-03-29T00:13:55.455Z,5.60
2023-03-29T00:16:22.490Z,5.75
2023-03-29T00:18:49.096Z,5.60
2023-03-29T00:21:15.928Z,8.52
2023-03-29T00:23:42.539Z,6.97
2023-03-29T00:26:09.324Z,7.78
2023-03-29T00:28:36.059Z,6.15
2023-03-29T00:31:11.679Z,6.65
2023-03-29T00:33:39.170Z,7.28
2023-03-29T00:36:07.384Z,5.25
2023-03-29T00:38:34.842Z,12.25
2023-03-29T00:41:02.210Z,9.55
2023-03-29T00:43:29.058Z,8.55
2023-03-29T00:45:55.758Z,5.18
2023-03-29T00:48:24.514Z,8.52
2023-03-29T00:50:54.521Z,7.72
2023-03-29T00:53:31.570Z,8.05
2023-03-29T00:56:05.296Z,7.65
2023-03-29T00:58:36.068Z,9.73
2023-03-29T01:01:12.330Z,7.07
2023-03-29T01:03:46.607Z,9.70
2023-03-29T01:06:16.892Z,6.93
2023-03-29T01:08:51.526Z,9.85
2023-03-29T01:11:52.797Z,11.68
2023-03-29T01:14:28.415Z,7.15
2023-03-29T01:16:55.481Z,6.30
2023-03-29T01:19:26.531Z,7.55
2023-03-29T01:22:02.117Z,11.02
2023-03-29T01:24:57.994Z,8.82
2023-03-29T01:27:44.202Z,6.97
2023-03-29T01:30:18.362Z,7.30
2023-03-29T01:32:47.949Z,10.88
2023-03-29T01:35:23.891Z,9.45
2023-03-29T01:37:58.812Z,9.10
2023-03-29T01:40:28.111Z,11.38
2023-03-29T01:43:11.662Z,8.65
2023-03-29T01:45:38.184Z,8.55
2023-03-29T01:48:16.494Z,8.27
2023-03-29T01:50:56.633Z,9.02
2023-03-29T01:53:38.298Z,7.53
2023-03-29T01:56:19.908Z,6.13
2023-03-29T01:58:52.579Z,8.23
2023-03-29T02:01:23.019Z,11.02
2023-03-29T02:03:54.620Z,8.35
2023-03-29T02:06:26.238Z,6.90
2023-03-29T02:08:54.397Z,9.77
2023-03-29T02:11:23.270Z,9.40
2023-03-29T02:13:49.931Z,12.40
2023-03-29T02:16:17.050Z,12.57
2023-03-29T02:18:46.500Z,11.10
2023-03-29T02:21:18.233Z,10.60
2023-03-29T02:23:46.085Z,11.52
2023-03-29T02:26:14.449Z,16.13
2023-03-29T02:28:42.049Z,11.48
2023-03-29T02:31:12.438Z,13.52
2023-03-29T02:34:00.948Z,10.73
2023-03-29T02:36:40.731Z,15.18
2023-03-29T02:39:09.810Z,14.25
2023-03-29T02:41:38.044Z,17.48
2023-03-29T02:44:08.347Z,13.73
2023-03-29T02:46:35.174Z,16.65
2023-03-29T02:49:05.132Z,17.02
2023-03-29T02:51:33.249Z,16.48
2023-03-29T02:54:03.124Z,15.88
2023-03-29T02:56:30.135Z,17.17
2023-03-29T02:58:56.788Z,17.08
2023-03-29T03:01:23.566Z,18.30
2023-03-29T03:03:50.841Z,16.35
2023-03-29T03:06:18.403Z,18.17
2023-03-29T03:08:45.814Z,17.23
2023-03-29T03:11:12.474Z,17.45
2023-03-29T03:13:39.425Z,17.48
2023-03-29T03:16:07.950Z,22.95
2023-03-29T03:18:34.661Z,19.52
2023-03-29T03:21:02.077Z,16.98
2023-03-29T03:23:29.565Z,20.83
2023-03-29T03:25:57.134Z,17.33
2023-03-29T03:28:27.352Z,18.38
2023-03-29T03:30:54.622Z,18.17
2023-03-29T03:33:41.040Z,18.90
2023-03-29T03:36:31.617Z,18.67
2023-03-29T03:38:58.379Z,19.58
2023-03-29T03:41:26.348Z,17.73
2023-03-29T03:43:53.368Z,20.92
2023-03-29T03:46:20.342Z,20.63
2023-03-29T03:48:48.039Z,21.40
2023-03-29T03:51:22.239Z,19.27
2023-03-29T03:53:50.185Z,21.40
2023-03-29T03:56:37.413Z,17.45
2023-03-29T03:59:04.697Z,21.77
2023-03-29T04:02:03.702Z,20.83
2023-03-29T04:04:31.488Z,21.30
2023-03-29T04:07:09.612Z,21.70
2023-03-29T04:09:47.927Z,19.45
2023-03-29T04:12:35.678Z,17.98
2023-03-29T04:15:03.570Z,19.42
2023-03-29T04:17:30.420Z,21.20
2023-03-29T04:20:12.659Z,18.90
2023-03-29T04:22:41.211Z,18.50
2023-03-29T04:25:08.783Z,22.02
2023-03-29T04:27:47.310Z,21.00
2023-03-29T04:30:36.852Z,20.20
2023-03-29T04:33:06.584Z,19.00
2023-03-29T04:35:36.240Z,18.58
2023-03-29T04:38:04.494Z,19.50
2023-03-29T04:40:31.386Z,18.25
2023-03-29T04:43:08.753Z,21.02
2023-03-29T04:45:39.656Z,14.07
2023-03-29T04:48:26.623Z,16.35
2023-03-29T04:50:54.426Z,16.00
2023-03-29T04:53:22.310Z,19.23
2023-03-29T04:55:50.971Z,15.48
2023-03-29T04:58:34.221Z,18.55
2023-03-29T05:01:01.223Z,18.83
2023-03-29T05:03:38.481Z,15.43
2023-03-29T05:06:29.135Z,19.33
2023-03-29T05:08:55.757Z,17.40
2023-03-29T05:11:29.658Z,17.45
2023-03-29T05:14:00.681Z,15.02
2023-03-29T05:16:31.814Z,18.02
2023-03-29T05:18:59.639Z,15.73
2023-03-29T05:21:28.399Z,17.17
2023-03-29T05:23:58.054Z,19.23
2023-03-29T05:26:43.756Z,19.85
2023-03-29T05:29:10.686Z,21.92
2023-03-29T05:31:37.918Z,18.92
2023-03-29T05:34:05.752Z,16.60
2023-03-29T05:36:34.975Z,18.90
2023-03-29T05:39:02.158Z,20.35
2023-03-29T05:41:29.278Z,17.00
2023-03-29T05:44:34.353Z,17.75
2023-03-29T05:47:11.351Z,18.92
2023-03-29T05:49:39.314Z,22.23
2023-03-29T05:52:09.906Z,19.80
2023-03-29T05:54:37.937Z,19.02
2023-03-29T05:57:06.195Z,14.43
2023-03-29T05:59:33.907Z,22.38
2023-03-29T06:02:03.179Z,17.50
2023-03-29T06:04:30.805Z,19.77
2023-03-29T06:07:20.396Z,17.98
2023-03-29T06:10:09.611Z,17.23
2023-03-29T06:12:38.173Z,20.13
2023-03-29T06:15:06.222Z,21.48
2023-03-29T06:17:41.463Z,18.35
2023-03-29T06:20:10.970Z,17.13
2023-03-29T06:22:41.895Z,18.70
2023-03-29T06:25:11.139Z,17.10
2023-03-29T06:27:40.074Z,19.02
2023-03-29T06:30:07.595Z,17.95
2023-03-29T06:32:36.161Z,16.42
2023-03-29T06:35:08.249Z,16.50
2023-03-29T06:37:41.633Z,13.73
2023-03-29T06:40:31.375Z,15.48
2023-03-29T06:42:59.417Z,20.83
2023-03-29T06:45:38.681Z,21.02
2023-03-29T06:50:38.958Z,15.30
2023-03-29T06:53:15.694Z,16.90
2023-03-29T06:55:45.699Z,15.82
2023-03-29T06:58:28.018Z,17.80
2023-03-29T07:01:02.675Z,16.10
2023-03-29T07:03:52.185Z,14.25
2023-03-29T07:06:24.142Z,15.38
2023-03-29T07:08:52.448Z,14.23
2023-03-29T07:11:46.389Z,13.77
2023-03-29T07:14:21.742Z,13.88
2023-03-29T07:16:48.807Z,13.05
2023-03-29T07:19:30.326Z,14.43
2023-03-29T07:22:16.330Z,16.67
2023-03-29T07:24:49.333Z,17.25
2023-03-29T07:27:17.797Z,17.20
2023-03-29T07:29:49.985Z,13.75
2023-03-29T07:32:17.823Z,12.13
2023-03-29T07:34:44.707Z,13.27
2023-03-29T07:37:22.265Z,13.80
2023-03-29T07:39:49.258Z,13.48
2023-03-29T07:42:39.294Z,13.02
2023-03-29T07:45:08.959Z,15.27
2023-03-29T07:47:44.798Z,14.00
2023-03-29T07:50:11.907Z,13.60
2023-03-29T07:52:39.654Z,14.93
2023-03-29T07:55:08.412Z,12.93
2023-03-29T08:00:19.609Z,15.77
2023-03-29T08:03:03.796Z,13.20
2023-03-29T08:05:40.727Z,14.90
2023-03-29T08:08:14.241Z,13.40
2023-03-29T08:10:49.870Z,17.77
2023-03-29T08:13:31.217Z,12.98
2023-03-29T08:16:30.010Z,12.45
2023-03-29T08:19:10.864Z,12.43
2023-03-29T08:21:51.982Z,12.38
2023-03-29T08:24:21.328Z,16.90
2023-03-29T08:26:52.395Z,11.13
2023-03-29T08:29:20.109Z,11.45
2023-03-29T08:31:47.170Z,16.35
2023-03-29T08:34:14.145Z,9.27
2023-03-29T08:37:00.722Z,9.88
2023-03-29T08:39:37.647Z,10.82
2023-03-29T08:42:49.129Z,12.63
2023-03-29T08:45:33.800Z,9.30
2023-03-29T08:50:52.642Z,7.93
2023-03-29T08:53:28.757Z,9.80
2023-03-29T08:56:25.099Z,10.25
2023-03-29T08:59:20.680Z,8.45
2023-03-29T09:01:50.611Z,9.85
2023-03-29T09:04:22.751Z,11.70
2023-03-29T09:06:55.246Z,10.43
2023-03-29T09:09:32.099Z,9.90
2023-03-29T09:12:08.516Z,12.02
2023-03-29T09:14:53.729Z,9.70
2023-03-29T09:17:38.537Z,10.45
2023-03-29T09:20:18.119Z,8.45
2023-03-29T09:23:18.068Z,9.23
2023-03-29T09:26:31.446Z,9.75
2023-03-29T09:29:26.152Z,9.57
2023-03-29T09:31:53.413Z,9.00
2023-03-29T09:34:24.174Z,10.90
2023-03-29T09:37:04.066Z,9.35
2023-03-29T09:39:31.061Z,12.07
2023-03-29T09:42:09.168Z,10.57
2023-03-29T09:44:43.730Z,10.55
2023-03-29T09:47:19.897Z,11.85
2023-03-29T09:49:50.840Z,10.20
2023-03-29T09:52:19.963Z,10.07
2023-03-29T09:55:01.207Z,11.48
2023-03-29T09:57:43.800Z,11.60
2023-03-29T10:00:13.890Z,11.60
2023-03-29T10:02:40.997Z,14.30
2023-03-29T10:05:15.874Z,12.80
2023-03-29T10:07:47.681Z,14.27
2023-03-29T10:10:30.674Z,11.50
2023-03-29T10:13:01.323Z,13.60
2023-03-29T10:15:30.358Z,11.90
2023-03-29T10:18:10.824Z,13.68
2023-03-29T10:20:39.936Z,12.02
2023-03-29T10:23:17.458Z,12.05
2023-03-29T10:25:44.460Z,13.38
2023-03-29T10:28:17.471Z,12.93
2023-03-29T10:30:48.621Z,10.80
2023-03-29T10:33:18.926Z,11.40
2023-03-29T10:35:46.839Z,13.95
2023-03-29T10:38:15.702Z,13.80
2023-03-29T10:40:45.398Z,14.25
2023-03-29T10:43:18.074Z,15.48
2023-03-29T10:45:48.496Z,18.83
2023-03-29T10:48:16.345Z,13.73
2023-03-29T10:50:48.734Z,13.20
2023-03-29T10:53:28.732Z,12.85
2023-03-29T10:56:18.530Z,14.18
2023-03-29T10:59:10.799Z,12.88
2023-03-29T11:01:56.438Z,12.93
2023-03-29T11:04:43.118Z,12.15
2023-03-29T11:07:32.063Z,12.93
2023-03-29T11:10:04.661Z,10.52
2023-03-29T11:12:54.592Z,12.53
2023-03-29T11:15:59.706Z,14.05
2023-03-29T11:18:32.154Z,10.35
2023-03-29T11:21:23.544Z,10.98
2023-03-29T11:23:58.087Z,11.05
2023-03-29T11:26:47.046Z,9.27
2023-03-29T11:29:25.427Z,11.13
2023-03-29T11:32:19.064Z,12.38
2023-03-29T11:35:07.161Z,11.50
2023-03-29T11:37:50.364Z,11.20
2023-03-29T11:40:30.133Z,12.43
2023-03-29T11:42:58.863Z,9.00
2023-03-29T11:45:30.564Z,11.18
2023-03-29T11:47:59.689Z,13.40
2023-03-29T11:50:36.718Z,9.25
2023-03-29T11:53:08.852Z,11.70
2023-03-29T11:55:37.517Z,11.38
2023-03-29T11:58:17.738Z,11.13
2023-03-29T12:00:48.409Z,8.45
2023-03-29T12:03:36.957Z,9.98
2023-03-29T12:06:14.459Z,10.57
2023-03-29T12:08:46.337Z,8.85
2023-03-29T12:11:22.907Z,12.38
2023-03-29T12:14:03.797Z,10.48
2023-03-29T12:16:32.182Z,7.80
2023-03-29T12:19:04.717Z,10.38
2023-03-29T12:21:32.407Z,12.07
2023-03-29T12:23:59.246Z,9.70
2023-03-29T12:26:45.552Z,11.13
2023-03-29T12:29:33.657Z,9.43
2023-03-29T12:32:03.028Z,10.82
2023-03-29T12:35:04.812Z,9.27
2023-03-29T12:38:04.883Z,11.63
2023-03-29T12:41:05.122Z,11.70
2023-03-29T12:44:08.982Z,12.45
2023-03-29T12:46:47.190Z,9.65
2023-03-29T12:49:40.910Z,14.82
2023-03-29T12:52:33.587Z,10.95
2023-03-29T12:55:02.827Z,9.70
2023-03-29T12:57:41.430Z,12.50
2023-03-29T13:00:21.182Z,10.50
2023-03-29T13:03:00.329Z,11.40
2023-03-29T13:05:33.589Z,11.02
2023-03-29T13:08:30.928Z,12.98
2023-03-29T13:10:57.778Z,10.82
2023-03-29T13:13:31.179Z,11.07
2023-03-29T13:16:14.647Z,11.88
2023-03-29T13:19:01.333Z,11.23
2023-03-29T13:21:56.177Z,13.90
2023-03-29T13:24:37.700Z,11.32
2023-03-29T13:27:17.979Z,13.18
2023-03-29T13:30:14.369Z,10.25
2023-03-29T13:32:52.495Z,10.52
2023-03-29T13:35:41.534Z,12.45
2023-03-29T13:38:22.340Z,9.85
2023-03-29T13:41:04.078Z,13.65
2023-03-29T13:43:49.847Z,12.38
2023-03-29T13:46:43.666Z,9.27
2023-03-29T13:49:23.254Z,12.50
2023-03-29T13:51:53.031Z,12.50
2023-03-29T13:54:33.801Z,13.18
2023-03-29T13:57:13.931Z,13.40
2023-03-29T14:00:07.169Z,11.68
2023-03-29T14:02:43.376Z,10.38
2023-03-29T14:05:13.421Z,9.85
2023-03-29T14:07:45.498Z,12.75
2023-03-29T14:10:15.540Z,10.93
2023-03-29T14:12:42.573Z,13.13
2023-03-29T14:15:20.218Z,12.00
2023-03-29T14:17:46.977Z,14.70
2023-03-29T14:20:14.811Z,13.73
2023-03-29T14:22:42.460Z,12.55
2023-03-29T14:25:15.665Z,14.27
2023-03-29T14:27:42.672Z,13.20
2023-03-29T14:30:28.403Z,16.60
2023-03-29T14:32:56.638Z,13.88
2023-03-29T14:35:32.319Z,14.68
2023-03-29T14:37:59.729Z,16.00
2023-03-29T14:40:27.713Z,13.75
2023-03-29T14:42:55.175Z,15.32
2023-03-29T14:45:23.400Z,14.65
2023-03-29T14:47:50.865Z,14.70
2023-03-29T14:50:20.095Z,13.07
2023-03-29T14:52:49.226Z,14.15
2023-03-29T14:55:19.298Z,13.00
2023-03-29T14:57:47.405Z,14.90
2023-03-29T15:00:22.349Z,15.05
2023-03-29T15:03:00.697Z,13.82
2023-03-29T15:05:39.002Z,13.98
2023-03-29T15:08:11.884Z,13.05
2023-03-29T15:10:38.860Z,12.23
2023-03-29T15:13:07.250Z,14.52
2023-03-29T15:15:37.000Z,16.15
2023-03-29T15:18:06.810Z,12.55
2023-03-29T15:20:38.741Z,12.40
2023-03-29T15:23:20.691Z,9.30
2023-03-29T15:25:58.845Z,11.38
2023-03-29T15:28:35.409Z,10.98
2023-03-29T15:31:13.178Z,12.88
2023-03-29T15:33:41.752Z,10.93
2023-03-29T15:36:11.251Z,11.35
2023-03-29T15:41:09.782Z,13.98
2023-03-29T15:43:37.141Z,13.52
2023-03-29T15:46:04.175Z,13.27
2023-03-29T15:48:33.905Z,14.07
2023-03-29T15:51:04.597Z,12.45
2023-03-29T15:53:32.918Z,10.75
2023-03-29T15:56:01.647Z,11.30
2023-03-29T15:58:31.047Z,12.48
2023-03-29T16:01:02.711Z,14.50
2023-03-29T16:03:29.717Z,11.65
2023-03-29T16:05:57.008Z,13.13
2023-03-29T16:08:25.055Z,11.85
2023-03-29T16:10:51.948Z,15.00
2023-03-29T16:13:18.570Z,12.77
2023-03-29T16:15:46.065Z,12.63
2023-03-29T16:18:12.706Z,12.25
2023-03-29T16:20:39.612Z,13.55
2023-03-29T16:23:11.113Z,15.07
2023-03-29T16:25:39.866Z,14.55
2023-03-29T16:28:08.473Z,11.43
2023-03-29T16:30:36.484Z,11.70
2023-03-29T16:33:08.560Z,12.32
2023-03-29T16:35:38.190Z,13.57
2023-03-29T16:38:04.895Z,13.63
2023-03-29T16:40:31.598Z,16.75
2023-03-29T16:42:58.297Z,16.25
2023-03-29T16:45:25.035Z,16.65
2023-03-29T16:47:51.747Z,16.70
2023-03-29T16:50:19.893Z,22.38
2023-03-29T16:52:48.461Z,17.77
2023-03-29T16:55:18.837Z,18.33
2023-03-29T16:57:47.156Z,18.02
2023-03-29T17:00:15.863Z,18.92
2023-03-29T17:02:43.624Z,16.08
2023-03-29T17:05:12.858Z,17.20
2023-03-29T17:07:39.639Z,16.85
2023-03-29T17:10:08.278Z,18.67
2023-03-29T17:12:36.168Z,17.67
2023-03-29T17:15:04.130Z,19.60
2023-03-29T17:17:31.131Z,18.27
2023-03-29T17:19:57.838Z,18.50
2023-03-29T17:22:24.809Z,17.50
2023-03-29T17:24:51.587Z,21.00
2023-03-29T17:27:18.631Z,17.77
2023-03-29T17:29:45.241Z,18.23
2023-03-29T17:32:11.957Z,19.40
2023-03-29T17:34:38.936Z,20.27
2023-03-29T17:37:05.621Z,20.77
2023-03-29T17:39:33.108Z,16.92
2023-03-29T17:41:59.746Z,21.40
2023-03-29T17:44:26.967Z,17.77
2023-03-29T17:46:53.623Z,22.38
2023-03-29T17:49:20.756Z,18.60
2023-03-29T17:51:47.412Z,18.50
2023-03-29T17:54:14.002Z,23.42
2023-03-29T17:56:40.803Z,21.52
2023-03-29T17:59:07.564Z,20.70
2023-03-29T18:01:35.370Z,21.60
2023-03-29T18:04:03.732Z,20.38
2023-03-29T18:06:30.740Z,21.02
2023-03-29T18:08:57.323Z,19.02
2023-03-29T18:11:24.782Z,20.17
2023-03-29T18:13:52.736Z,20.67
2023-03-29T18:16:20.844Z,22.45
2023-03-29T18:18:48.133Z,21.88
2023-03-29T18:21:16.042Z,20.92
2023-03-29T18:23:47.218Z,22.30
2023-03-29T18:26:15.491Z,21.30
2023-03-29T18:28:42.453Z,25.75
2023-03-29T18:31:09.197Z,21.65
2023-03-29T18:33:36.015Z,27.92
2023-03-29T18:36:05.024Z,22.67
2023-03-29T18:38:36.127Z,25.33
2023-03-29T18:41:04.072Z,22.88
2023-03-29T18:47:36.158Z,22.42
2023-03-29T18:50:02.912Z,24.23
2023-03-29T18:52:29.510Z,26.30
2023-03-29T18:54:56.172Z,23.70
2023-03-29T18:57:22.865Z,29.13
2023-03-29T18:59:49.512Z,25.70
2023-03-29T19:02:16.208Z,25.70
2023-03-29T19:04:42.905Z,25.70
2023-03-29T19:07:09.716Z,27.73
2023-03-29T19:09:36.418Z,24.38
2023-03-29T19:12:03.838Z,29.02
2023-03-29T19:14:30.593Z,24.90
2023-03-29T19:16:57.182Z,25.10
2023-03-29T19:19:26.216Z,30.10
2023-03-29T19:21:53.354Z,29.65
2023-03-29T19:24:20.044Z,27.30
2023-03-29T19:26:47.954Z,24.98
2023-03-29T19:29:14.892Z,25.08
2023-03-29T19:31:41.530Z,29.65
2023-03-29T19:34:10.921Z,30.42
2023-03-29T19:36:37.823Z,29.60
2023-03-29T19:39:05.494Z,25.30
2023-03-29T19:41:32.162Z,25.83
2023-03-29T19:43:58.849Z,26.92
2023-03-29T19:46:27.738Z,25.85
2023-03-29T19:48:55.751Z,24.40
2023-03-29T19:51:23.527Z,27.75
2023-03-29T19:53:50.308Z,22.13
2023-03-29T19:56:17.781Z,25.67
2023-03-29T19:58:44.582Z,23.10
2023-03-29T20:01:11.154Z,25.05
2023-03-29T20:03:38.492Z,25.27
2023-03-29T20:06:06.464Z,28.05
2023-03-29T20:08:33.226Z,24.60
2023-03-29T20:11:02.441Z,28.48
2023-03-29T20:13:38.086Z,25.88
2023-03-29T20:16:07.604Z,19.77
2023-03-29T20:18:34.539Z,23.35
2023-03-29T20:21:01.987Z,23.42
2023-03-29T20:23:28.812Z,22.83
2023-03-29T20:25:55.501Z,27.10
2023-03-29T20:28:23.485Z,26.67
2023-03-29T20:30:51.323Z,27.90
2023-03-29T20:33:18.734Z,24.20
2023-03-29T20:35:46.237Z,23.80
2023-03-29T20:38:13.609Z,30.23
2023-03-29T20:40:43.054Z,28.67
2023-03-29T20:43:13.349Z,26.13
2023-03-29T20:45:52.798Z,28.80
2023-03-29T20:48:23.286Z,23.23
2023-03-29T20:50:50.577Z,31.30
2023-03-29T20:53:18.473Z,25.60
2023-03-29T20:55:45.196Z,26.40
2023-03-29T20:58:11.967Z,27.23
2023-03-29T21:00:38.626Z,30.15
2023-03-29T21:03:05.249Z,23.75
2023-03-29T21:05:32.964Z,27.33
2023-03-29T21:07:59.784Z,29.95
2023-03-29T21:10:28.091Z,29.08
2023-03-29T21:12:59.965Z,29.08
2023-03-29T21:15:28.629Z,27.80
2023-03-29T21:17:55.379Z,37.55
2023-03-29T21:20:22.281Z,28.80
2023-03-29T21:22:48.867Z,28.02
2023-03-29T21:25:15.817Z,27.10
2023-03-29T21:27:42.678Z,26.50
2023-03-29T21:30:09.744Z,29.63
2023-03-29T21:32:36.476Z,27.75
2023-03-29T21:35:03.293Z,27.20
2023-03-29T21:37:29.958Z,31.88
2023-03-29T21:39:56.542Z,34.25
2023-03-29T21:42:23.187Z,27.08
2023-03-29T21:44:49.871Z,28.88
2023-03-29T21:47:16.504Z,29.63
2023-03-29T21:49:43.113Z,30.33
2023-03-29T21:52:09.698Z,31.02
2023-03-29T21:54:36.586Z,27.73
2023-03-29T21:57:03.240Z,30.35
2023-03-29T21:59:30.051Z,30.92
2023-03-29T22:01:56.703Z,32.65
2023-03-29T22:04:36.088Z,29.83
2023-03-29T22:07:04.992Z,30.30
2023-03-29T22:09:33.328Z,31.27
2023-03-29T22:12:01.490Z,29.48
2023-03-29T22:14:31.289Z,28.08
2023-03-29T22:16:57.912Z,28.63
2023-03-29T22:19:24.576Z,28.60
2023-03-29T22:21:51.495Z,27.73
2023-03-29T22:24:18.262Z,27.95
2023-03-29T22:26:45.010Z,27.65
2023-03-29T22:29:12.007Z,28.23
2023-03-29T22:31:39.354Z,25.98
2023-03-29T22:34:06.608Z,26.60
2023-03-29T22:36:33.483Z,29.40
2023-03-29T22:39:00.134Z,27.23
2023-03-29T22:41:28.159Z,25.55
2023-03-29T22:43:57.378Z,30.27
2023-03-29T22:46:24.358Z,27.85
2023-03-29T22:48:51.277Z,26.30
2023-03-29T22:51:18.036Z,24.45
2023-03-29T22:53:44.788Z,29.55
2023-03-29T22:56:11.388Z,26.63
2023-03-29T22:58:38.055Z,26.73
2023-03-29T23:01:05.702Z,23.17
2023-03-29T23:03:32.911Z,27.40
2023-03-29T23:06:03.752Z,26.80
2023-03-29T23:08:31.753Z,27.60
2023-03-29T23:10:58.663Z,24.35
2023-03-29T23:13:29.437Z,27.20
2023-03-29T23:15:58.966Z,23.02
2023-03-29T23:18:28.460Z,28.83
2023-03-29T23:20:56.814Z,26.63
2023-03-29T23:23:24.525Z,25.40
2023-03-29T23:25:52.536Z,26.25
2023-03-29T23:28:21.544Z,28.63
2023-03-29T23:31:03.414Z,23.60
2023-03-29T23:33:33.642Z,23.73
2023-03-29T23:36:04.804Z,22.05
2023-03-29T23:38:33.288Z,22.02
2023-03-29T23:41:02.105Z,19.15
2023-03-29T23:43:33.882Z,19.42
2023-03-29T23:46:05.871Z,18.02
2023-03-29T23:48:32.731Z,16.17
2023-03-29T23:50:59.463Z,17.05
2023-03-29T23:53:28.749Z,18.33
2023-03-29T23:56:00.419Z,14.07
2023-03-29T23:58:28.486Z,13.88
